Time;durP1;ratioP1;P1;durP2;ratioP2;P2;SDS_P1;SDS_P2;PMS_P1;PMS_P2;Temp;Humidity;BMP_temperature;BMP_pressure;BME280_temperature;BME280_humidity;BME280_pressure;Samples;Min_cycle;Max_cycle;Signal;HPM_P1;HPM_P2
2023/09/18 00:01:48;;;;;;;;;3.67;2.00;;;;;-143.90;86.59;74533.44;4876623;28;103750;-73
2023/09/18 00:04:15;;;;;;;;;1.00;1.00;;;;;-143.90;86.92;74527.25;4900380;28;101992;-74
2023/09/18 00:06:42;;;;;;;;;1.00;1.00;;;;;-143.90;87.11;74512.78;4914591;28;104852;-74
2023/09/18 00:09:11;;;;;;;;;1.00;1.00;;;;;-143.90;86.81;74512.78;4910126;28;102122;-73
2023/09/18 00:11:38;;;;;;;;;1.67;1.00;;;;;-143.90;86.63;74521.03;4906969;28;103095;-74
2023/09/18 00:14:06;;;;;;;;;2.00;1.67;;;;;-143.90;86.78;74523.09;4883317;28;102633;-74
2023/09/18 00:16:32;;;;;;;;;1.00;1.00;;;;;-143.90;86.21;74523.09;4908730;28;102445;-74
2023/09/18 00:19:17;;;;;;;;;0.67;0.33;;;;;-143.90;86.69;74527.25;4898553;28;103911;-74
2023/09/18 00:21:44;;;;;;;;;1.67;0.67;;;;;-143.90;86.64;74533.44;4917158;28;104474;-74
2023/09/18 00:24:11;;;;;;;;;1.00;1.00;;;;;-143.90;86.56;74529.31;4898865;28;103189;-73
2023/09/18 00:26:38;;;;;;;;;1.00;1.00;;;;;-143.90;86.08;74537.56;4883083;28;103674;-73
2023/09/18 00:29:05;;;;;;;;;2.00;1.00;;;;;-143.90;85.84;74533.44;4906282;28;102246;-73
2023/09/18 00:31:32;;;;;;;;;1.33;1.33;;;;;-143.90;86.36;74543.78;4872360;28;104837;-73
2023/09/18 00:34:02;;;;;;;;;1.67;1.67;;;;;-143.90;86.44;74543.78;4889030;28;102140;-73
2023/09/18 00:36:29;;;;;;;;;2.00;2.00;;;;;-143.90;86.40;74552.03;4888548;28;102919;-73
2023/09/18 00:38:59;;;;;;;;;2.00;2.00;;;;;-143.90;86.12;74556.19;4919439;28;102843;-72
2023/09/18 00:41:26;;;;;;;;;2.00;2.00;;;;;-143.90;86.23;74549.97;4887977;28;104660;-73
2023/09/18 00:43:52;;;;;;;;;2.67;2.67;;;;;-143.90;86.32;74558.25;4912844;28;101962;-73
2023/09/18 00:46:24;;;;;;;;;1.00;1.00;;;;;-143.90;86.07;74547.91;4912634;28;102823;-72
2023/09/18 00:48:53;;;;;;;;;2.00;2.00;;;;;-143.90;86.54;74552.03;4898401;28;102443;-73
2023/09/18 00:51:20;;;;;;;;;2.00;2.00;;;;;-143.90;86.39;74558.25;4894671;28;112197;-73
2023/09/18 00:53:49;;;;;;;;;3.00;2.00;;;;;-143.90;86.20;74556.19;4905074;28;102121;-73
2023/09/18 00:56:17;;;;;;;;;2.00;1.00;;;;;-143.90;86.25;74564.44;4915017;28;103164;-74
2023/09/18 00:58:47;;;;;;;;;2.00;2.00;;;;;-143.90;86.56;74552.03;4900474;28;102448;-74
2023/09/18 01:01:22;;;;;;;;;1.00;1.00;;;;;-143.90;86.62;74554.13;4894528;28;103719;-73
2023/09/18 01:03:51;;;;;;;;;1.67;1.67;;;;;-143.90;86.21;74560.31;4912022;28;103362;-74
2023/09/18 01:06:19;;;;;;;;;2.00;2.00;;;;;-143.90;86.34;74549.97;4890390;28;102083;-73
2023/09/18 01:08:50;;;;;;;;;2.00;2.00;;;;;-143.90;86.50;74547.91;4905945;28;102761;-71
2023/09/18 01:11:37;;;;;;;;;2.33;2.33;;;;;-143.90;86.28;74552.03;4882119;28;104458;-73
2023/09/18 01:14:14;;;;;;;;;1.00;1.00;;;;;-143.90;85.63;74541.72;4910413;28;104764;-73
2023/09/18 01:16:54;;;;;;;;;1.67;1.67;;;;;-143.90;86.03;74543.78;4893532;28;102765;-74
2023/09/18 01:19:38;;;;;;;;;1.67;1.00;;;;;-143.90;85.81;74554.13;4881595;28;102522;-73
2023/09/18 01:22:06;;;;;;;;;1.33;1.00;;;;;-143.90;85.72;74558.25;4915015;28;108672;-73
2023/09/18 01:24:35;;;;;;;;;0.67;0.67;;;;;-143.90;85.64;74539.66;4901210;28;102438;-72
2023/09/18 01:27:04;;;;;;;;;1.00;1.00;;;;;-143.90;85.99;74539.66;4886074;28;102193;-73
2023/09/18 01:29:31;;;;;;;;;1.00;1.00;;;;;-143.90;85.53;74543.78;4906720;28;102509;-74
2023/09/18 01:31:58;;;;;;;;;2.33;2.33;;;;;-143.90;85.58;74539.66;4911014;28;103081;-73
2023/09/18 01:34:33;;;;;;;;;2.00;2.00;;;;;-143.90;85.34;74543.78;4917261;28;102162;-73
2023/09/18 01:37:00;;;;;;;;;1.00;1.00;;;;;-143.90;85.63;74545.84;4907846;28;104540;-73
2023/09/18 01:39:31;;;;;;;;;1.00;1.00;;;;;-143.90;85.79;74560.31;4921269;28;102403;-72
2023/09/18 01:42:04;;;;;;;;;3.00;2.67;;;;;-143.90;85.77;74554.13;4905689;28;104894;-74
2023/09/18 01:44:31;;;;;;;;;1.67;1.67;;;;;-143.90;85.44;74549.97;4887244;28;104150;-74
2023/09/18 01:46:59;;;;;;;;;2.00;2.00;;;;;-143.90;85.11;74554.13;4888931;28;102326;-74
2023/09/18 01:49:32;;;;;;;;;2.00;2.00;;;;;-143.90;85.29;74560.31;4905110;28;102527;-74
2023/09/18 01:51:59;;;;;;;;;2.33;2.00;;;;;-143.90;85.39;74566.53;4887192;28;104260;-73
2023/09/18 01:54:26;;;;;;;;;1.33;1.33;;;;;-143.90;85.73;74560.31;4907569;28;102053;-74
2023/09/18 01:56:53;;;;;;;;;3.00;2.00;;;;;-143.90;85.55;74576.84;4928708;28;103490;-73
2023/09/18 01:59:21;;;;;;;;;4.00;2.67;;;;;-143.90;85.74;74568.59;4868950;28;102073;-74
2023/09/18 02:01:50;;;;;;;;;0.33;0.00;;;;;-143.90;85.45;74566.53;4913171;28;105425;-74
2023/09/18 02:04:18;;;;;;;;;3.33;2.00;;;;;-143.90;85.96;74574.78;4909136;28;102165;-74
2023/09/18 02:07:05;;;;;;;;;1.67;1.67;;;;;-143.90;85.81;74576.84;4911594;28;103725;-74
2023/09/18 02:09:33;;;;;;;;;3.33;2.00;;;;;-143.90;86.47;74572.72;4908617;28;102419;-74
2023/09/18 02:12:00;;;;;;;;;3.00;2.33;;;;;-143.90;85.91;74572.72;4896749;28;105145;-74
2023/09/18 02:14:26;;;;;;;;;2.00;1.33;;;;;-143.90;85.91;74576.84;4907946;28;102371;-74
2023/09/18 02:16:54;;;;;;;;;2.00;2.00;;;;;-143.90;86.15;74581.00;4916828;28;102443;-75
2023/09/18 02:19:20;;;;;;;;;2.00;2.00;;;;;-143.90;86.21;74570.66;4912737;28;103569;-74
2023/09/18 02:21:47;;;;;;;;;3.00;2.00;;;;;-143.90;86.07;74568.59;4905563;28;103218;-74
2023/09/18 02:24:14;;;;;;;;;5.67;5.00;;;;;-143.90;85.84;74576.84;4898513;28;105092;-74
2023/09/18 02:26:41;;;;;;;;;5.00;4.67;;;;;-143.90;85.89;74578.91;4887039;28;102947;-73
2023/09/18 02:29:13;;;;;;;;;4.00;4.00;;;;;-143.90;85.62;74570.66;4906514;28;102136;-74
2023/09/18 02:31:40;;;;;;;;;3.33;2.00;;;;;-143.90;86.17;74566.53;4874304;28;104050;-74
2023/09/18 02:34:08;;;;;;;;;4.00;3.00;;;;;-143.90;86.15;74574.78;4884772;28;102998;-74
2023/09/18 02:36:36;;;;;;;;;2.33;2.33;;;;;-143.90;86.15;74558.25;4909322;28;102237;-74
2023/09/18 02:39:03;;;;;;;;;3.00;3.00;;;;;-143.90;86.45;74564.44;4898196;28;102344;-72
2023/09/18 02:41:29;;;;;;;;;1.67;1.00;;;;;-143.90;86.64;74572.72;4888719;28;105399;-73
2023/09/18 02:43:56;;;;;;;;;3.67;2.67;;;;;-143.90;86.65;74564.44;4871099;28;101993;-72
2023/09/18 02:46:23;;;;;;;;;4.00;3.33;;;;;-143.90;86.40;74570.66;4904838;28;102425;-73
2023/09/18 02:48:50;;;;;;;;;1.67;1.67;;;;;-143.90;86.75;74552.03;4879973;28;102700;-74
2023/09/18 02:51:18;;;;;;;;;2.33;2.33;;;;;-143.90;86.78;74558.25;4884974;28;103771;-74
2023/09/18 02:53:44;;;;;;;;;1.67;1.67;;;;;-143.90;87.01;74568.59;4903993;28;105098;-73
2023/09/18 02:56:11;;;;;;;;;1.00;1.00;;;;;-143.90;87.18;74547.91;4885847;28;102252;-74
2023/09/18 02:58:38;;;;;;;;;2.00;1.33;;;;;-143.90;87.21;74556.19;4895474;28;102397;-74
2023/09/18 03:01:07;;;;;;;;;1.00;1.00;;;;;-143.90;86.90;74547.91;4875644;28;103736;-74
2023/09/18 03:03:34;;;;;;;;;3.00;3.00;;;;;-143.90;86.36;74539.66;4888508;28;103471;-74
2023/09/18 03:06:04;;;;;;;;;2.00;2.00;;;;;-143.90;86.23;74531.38;4900813;28;101977;-74
2023/09/18 03:08:32;;;;;;;;;2.33;2.33;;;;;-143.90;86.62;74531.38;4896698;28;102105;-74
2023/09/18 03:10:59;;;;;;;;;2.00;2.00;;;;;-143.90;86.69;74531.38;4883016;28;103072;-74
2023/09/18 03:13:30;;;;;;;;;2.67;2.67;;;;;-143.90;86.57;74543.78;4895804;28;102243;-73
2023/09/18 03:15:57;;;;;;;;;3.00;3.00;;;;;-143.90;86.54;74531.38;4901388;28;103149;-74
2023/09/18 03:18:25;;;;;;;;;2.00;2.00;;;;;-143.90;86.26;74527.25;4889243;28;105150;-74
2023/09/18 03:20:54;;;;;;;;;3.00;3.00;;;;;-143.90;86.42;74523.09;4886771;28;103021;-73
2023/09/18 03:23:21;;;;;;;;;4.00;3.00;;;;;-143.90;86.21;74514.84;4919068;28;103457;-74
2023/09/18 03:25:48;;;;;;;;;4.00;4.00;;;;;-143.90;86.40;74518.97;4917991;28;103189;-73
2023/09/18 03:28:18;;;;;;;;;3.00;3.00;;;;;-143.90;86.26;74531.38;4916932;28;102173;-73
2023/09/18 03:30:45;;;;;;;;;3.00;3.00;;;;;-143.90;86.10;74527.25;4909985;28;105116;-74
2023/09/18 03:33:12;;;;;;;;;3.00;3.00;;;;;-143.90;85.86;74535.50;4920163;28;101972;-74
2023/09/18 03:35:49;;;;;;;;;3.00;3.00;;;;;-143.90;85.48;74514.84;4908727;28;102235;-74
2023/09/18 03:38:18;;;;;;;;;3.00;3.00;;;;;-143.90;85.44;74514.84;4899338;28;103721;-73
2023/09/18 03:40:45;;;;;;;;;5.33;5.33;;;;;-143.90;85.60;74525.19;4904771;28;103810;-73
2023/09/18 03:43:12;;;;;;;;;3.67;3.67;;;;;-143.90;85.25;74523.09;4926095;28;102022;-74
2023/09/18 03:45:42;;;;;;;;;4.00;4.00;;;;;-143.90;85.37;74518.97;4913188;28;102461;-74
2023/09/18 03:48:10;;;;;;;;;4.00;4.00;;;;;-143.90;85.44;74527.25;4902475;28;102336;-74
2023/09/18 03:50:40;;;;;;;;;2.67;2.67;;;;;-143.90;85.47;74527.25;4915146;28;103197;-74
2023/09/18 03:53:08;;;;;;;;;3.33;3.00;;;;;-143.90;85.93;74535.50;4921439;28;103287;-74
2023/09/18 03:55:35;;;;;;;;;4.00;4.00;;;;;-143.90;85.67;74531.38;4903058;28;102578;-74
2023/09/18 03:58:03;;;;;;;;;2.67;2.67;;;;;-143.90;85.83;74531.38;4923560;28;102205;-74
2023/09/18 04:00:29;;;;;;;;;4.67;4.67;;;;;-143.90;85.37;74533.44;4919127;28;105045;-73
2023/09/18 04:02:56;;;;;;;;;4.00;4.00;;;;;-143.90;85.40;74531.38;4920681;28;102031;-73
2023/09/18 04:05:24;;;;;;;;;3.00;3.00;;;;;-143.90;85.82;74527.25;4923948;28;103179;-73
2023/09/18 04:07:52;;;;;;;;;6.00;5.00;;;;;-143.90;85.59;74531.38;4911875;28;102488;-73
2023/09/18 04:10:22;;;;;;;;;4.00;3.67;;;;;-143.90;86.40;74539.66;4894201;28;103368;-73
2023/09/18 04:12:51;;;;;;;;;4.33;4.00;;;;;-143.90;86.71;74533.44;4922194;28;102289;-75
2023/09/18 04:15:19;;;;;;;;;6.00;6.00;;;;;-143.90;86.57;74549.97;4919508;28;102484;-74
2023/09/18 04:17:47;;;;;;;;;4.00;4.00;;;;;-143.90;87.27;74566.53;4919737;28;102494;-73
2023/09/18 04:20:15;;;;;;;;;6.00;6.00;;;;;-143.90;87.21;74585.13;4918381;28;105378;-74
2023/09/18 04:22:45;;;;;;;;;3.33;3.00;;;;;-143.90;88.20;74589.25;4910966;28;102262;-75
2023/09/18 04:25:13;;;;;;;;;8.00;8.00;;;;;-143.90;90.39;74620.25;4927000;28;102915;-73
2023/09/18 04:27:40;;;;;;;;;7.00;7.00;;;;;-143.90;90.12;74616.13;4920991;28;103233;-74
2023/09/18 04:30:11;;;;;;;;;9.33;8.33;;;;;-143.90;90.31;74632.66;4920515;28;103920;-73
2023/09/18 04:32:38;;;;;;;;;7.00;6.00;;;;;-143.90;91.10;74645.06;4921479;28;102431;-73
2023/09/18 04:35:06;;;;;;;;;7.00;7.00;;;;;-143.90;91.56;74643.00;4911433;28;102266;-73
2023/09/18 04:37:37;;;;;;;;;5.00;5.00;;;;;-143.90;91.77;74653.34;4919975;28;103184;-74
2023/09/18 04:40:11;;;;;;;;;6.33;5.33;;;;;-143.90;91.97;74651.28;4918085;28;103590;-74
2023/09/18 04:42:39;;;;;;;;;5.33;5.33;;;;;-143.90;91.91;74661.59;4923111;28;102979;-73
2023/09/18 04:45:07;;;;;;;;;5.00;5.00;;;;;-143.90;91.40;74663.66;4904027;28;102116;-74
2023/09/18 04:47:35;;;;;;;;;5.00;5.00;;;;;-143.90;91.47;74653.34;4841086;28;102861;-73
2023/09/18 04:50:05;;;;;;;;;5.25;5.25;;;;;-143.90;91.44;74657.47;4905234;28;103007;-73
2023/09/18 04:52:40;;;;;;;;;4.33;3.33;;;;;-143.90;91.05;74657.47;4924111;28;104306;-73
2023/09/18 04:55:08;;;;;;;;;5.00;4.67;;;;;-143.90;91.37;74661.59;4916779;28;102050;-74
2023/09/18 04:57:35;;;;;;;;;4.00;4.00;;;;;-143.90;91.90;74676.06;4915522;28;107327;-75
2023/09/18 05:00:03;;;;;;;;;4.00;4.00;;;;;-143.90;92.44;74659.53;4921033;28;103589;-73
2023/09/18 05:02:42;;;;;;;;;5.00;5.00;;;;;-143.90;92.45;74674.00;4920060;28;102223;-74
2023/09/18 05:05:09;;;;;;;;;6.33;6.00;;;;;-143.90;92.00;74680.22;4917162;28;102211;-73
2023/09/18 05:07:37;;;;;;;;;4.33;4.33;;;;;-143.90;92.32;74663.66;4923643;28;103875;-74
2023/09/18 05:10:05;;;;;;;;;5.67;5.00;;;;;-143.90;93.55;74665.75;4924779;28;103199;-73
2023/09/18 05:12:32;;;;;;;;;2.00;2.00;;;;;-143.90;94.35;74700.88;4921403;28;102106;-74
2023/09/18 05:14:58;;;;;;;;;10.00;9.25;;;;;-143.90;95.14;74705.00;4915064;28;101999;-74
2023/09/18 05:17:51;;;;;;;;;8.00;6.00;;;;;-143.90;95.25;74684.34;4926436;28;102286;-75
2023/09/18 05:20:19;;;;;;;;;7.00;5.25;;;;;-143.90;95.03;74678.16;4920379;28;108164;-74
2023/09/18 05:22:46;;;;;;;;;13.25;12.00;;;;;-143.90;95.61;74676.06;4920891;28;103689;-74
2023/09/18 05:25:15;;;;;;;;;11.25;11.25;;;;;-143.90;95.64;74669.88;4925638;28;102823;-74
2023/09/18 05:27:45;;;;;;;;;10.75;10.00;;;;;-143.90;95.80;74684.34;4935321;28;102112;-74
2023/09/18 05:30:18;;;;;;;;;11.00;10.00;;;;;-143.90;95.78;74663.66;4931175;28;103061;-74
2023/09/18 05:32:45;;;;;;;;;12.00;11.75;;;;;-143.90;95.75;74647.13;4932809;28;101895;-74
2023/09/18 05:35:12;;;;;;;;;8.75;8.75;;;;;-143.90;95.72;74643.00;4912038;28;102112;-74
2023/09/18 05:37:43;;;;;;;;;8.75;8.75;;;;;-143.90;95.75;74628.53;4914555;28;102491;-74
2023/09/18 05:40:12;;;;;;;;;6.25;6.25;;;;;-143.90;95.03;74614.06;4945024;28;104685;-74
2023/09/18 05:42:45;;;;;;;;;6.50;6.25;;;;;-143.90;95.10;74589.25;4936639;28;102280;-74
2023/09/18 05:45:14;;;;;;;;;6.33;6.00;;;;;-143.90;95.28;74568.59;4933781;28;102505;-75
2023/09/18 05:47:42;;;;;;;;;4.33;4.33;;;;;-143.90;94.42;74539.66;4925573;28;102572;-74
2023/09/18 05:50:14;;;;;;;;;4.33;4.00;;;;;-143.90;93.83;74518.97;4905656;28;103962;-74
2023/09/18 05:52:46;;;;;;;;;3.00;3.00;;;;;-143.90;93.04;74492.09;4935907;28;101981;-74
2023/09/18 05:55:15;;;;;;;;;4.00;4.00;;;;;-143.90;92.18;74477.63;4930244;28;102666;-74
2023/09/18 05:57:42;;;;;;;;;4.33;4.00;;;;;-143.90;91.43;74465.22;4928818;28;102311;-73
2023/09/18 06:00:13;;;;;;;;;5.00;5.00;;;;;-143.90;90.86;74436.28;4928816;28;104021;-73
2023/09/18 06:02:40;;;;;;;;;7.00;6.33;;;;;-143.90;89.32;74413.56;4920769;28;102793;-74
2023/09/18 06:05:11;;;;;;;;;6.00;6.00;;;;;-143.90;89.02;74399.09;4930058;28;102141;-74
2023/09/18 06:07:39;;;;;;;;;6.67;6.00;;;;;-143.90;88.10;74390.81;4922016;28;102859;-73
2023/09/18 06:10:06;;;;;;;;;7.00;7.00;;;;;-143.90;88.15;74370.16;4927227;28;105440;-73
2023/09/18 06:12:33;;;;;;;;;5.33;4.67;;;;;-143.90;87.88;74353.63;4917432;28;101869;-73
2023/09/18 06:15:00;;;;;;;;;5.00;5.00;;;;;-143.90;88.08;74324.69;4927428;28;102072;-74
2023/09/18 06:17:26;;;;;;;;;6.00;6.00;;;;;-143.90;86.97;74312.28;4915858;28;102309;-73
2023/09/18 06:19:53;;;;;;;;;4.00;3.00;;;;;-143.90;85.99;74285.41;4917612;28;104140;-73
2023/09/18 06:22:23;;;;;;;;;4.67;4.67;;;;;-143.90;85.19;74266.81;4920323;28;102523;-72
2023/09/18 06:24:50;;;;;;;;;4.00;4.00;;;;;-143.90;84.13;74223.41;4921845;28;104552;-74
2023/09/18 06:27:18;;;;;;;;;5.00;5.00;;;;;-143.90;82.31;74204.78;4907189;28;102661;-74
2023/09/18 06:29:45;;;;;;;;;8.00;7.00;;;;;-143.90;81.82;74169.66;4922353;28;104286;-74
2023/09/18 06:32:12;;;;;;;;;7.00;6.33;;;;;-143.90;80.11;74142.78;4910941;28;102200;-74
2023/09/18 06:34:42;;;;;;;;;8.33;8.33;;;;;-143.90;80.43;74118.00;4913326;28;102890;-73
2023/09/18 06:37:12;;;;;;;;;6.33;6.33;;;;;-143.90;79.76;74091.13;4906313;28;102024;-74
2023/09/18 06:39:39;;;;;;;;;6.67;6.67;;;;;-143.90;79.08;74082.84;4916597;28;104154;-74
2023/09/18 06:42:06;;;;;;;;;7.00;7.00;;;;;-143.90;76.97;74055.97;4903240;28;103001;-74
2023/09/18 06:44:32;;;;;;;;;7.33;7.00;;;;;-143.90;76.57;74047.72;4920186;28;102291;-74
2023/09/18 06:47:02;;;;;;;;;8.00;8.00;;;;;-143.90;76.97;74027.03;4910343;28;102219;-74
2023/09/18 06:49:28;;;;;;;;;7.00;6.33;;;;;-143.90;77.16;74006.38;4895822;28;104218;-74
2023/09/18 06:51:55;;;;;;;;;8.00;6.67;;;;;-143.90;74.98;73987.78;4917616;28;104654;-74
2023/09/18 06:54:22;;;;;;;;;9.33;9.33;;;;;-143.90;72.97;73989.84;4915072;28;102411;-73
2023/09/18 06:56:50;;;;;;;;;7.00;7.00;;;;;-143.90;74.25;73975.38;4908095;28;102274;-74
2023/09/18 06:59:16;;;;;;;;;6.67;6.67;;;;;-143.90;74.10;73956.78;4912858;28;105490;-74
2023/09/18 07:01:43;;;;;;;;;8.33;8.33;;;;;-143.90;73.72;73942.31;4913594;28;102048;-75
2023/09/18 07:04:10;;;;;;;;;8.67;8.67;;;;;-143.90;72.91;73936.09;4899705;28;104421;-73
2023/09/18 07:06:37;;;;;;;;;7.33;7.00;;;;;-143.90;72.62;73921.63;4909819;28;102051;-73
2023/09/18 07:09:06;;;;;;;;;7.00;6.67;;;;;-143.90;71.20;73907.16;4890558;28;103061;-74
2023/09/18 07:11:34;;;;;;;;;7.67;7.67;;;;;-143.90;71.30;73898.91;4911723;28;102147;-73
2023/09/18 07:14:02;;;;;;;;;7.67;7.00;;;;;-143.90;70.03;73890.63;4917255;28;102260;-74
2023/09/18 07:16:29;;;;;;;;;7.33;7.33;;;;;-143.90;71.14;73886.50;4919440;28;102080;-73
2023/09/18 07:18:56;;;;;;;;;9.00;8.00;;;;;-143.90;70.74;73874.09;4907228;28;103601;-73
2023/09/18 07:21:23;;;;;;;;;11.67;10.00;;;;;-143.90;68.86;73869.97;4928949;28;103137;-74
2023/09/18 07:23:50;;;;;;;;;10.00;9.33;;;;;-143.90;70.74;73847.25;4911149;28;102264;-74
2023/09/18 07:26:17;;;;;;;;;9.67;8.00;;;;;-143.90;70.64;73838.97;4929503;28;102456;-74
2023/09/18 07:28:44;;;;;;;;;8.67;8.00;;;;;-143.90;68.45;73826.56;4905795;28;103683;-73
2023/09/18 07:31:12;;;;;;;;;7.33;6.67;;;;;-143.90;68.93;73803.84;4927734;28;102324;-73
2023/09/18 07:33:39;;;;;;;;;10.00;8.33;;;;;-143.90;67.90;73783.16;4918058;28;102803;-74
2023/09/18 07:36:06;;;;;;;;;7.00;7.00;;;;;-143.90;68.77;73754.25;4919024;28;104434;-74
2023/09/18 07:38:33;;;;;;;;;9.00;9.00;;;;;-143.90;67.87;73748.03;4922490;28;104246;-74
2023/09/18 07:40:59;;;;;;;;;14.00;13.33;;;;;-143.90;66.99;73737.69;4919041;28;102385;-73
2023/09/18 07:43:26;;;;;;;;;9.33;9.33;;;;;-143.90;66.35;73727.38;4907127;28;102034;-74
2023/09/18 07:45:54;;;;;;;;;9.00;8.67;;;;;-143.90;65.33;73721.16;4902584;28;102218;-73
2023/09/18 07:48:24;;;;;;;;;10.00;9.00;;;;;-143.90;67.25;73692.25;4922785;28;111066;-74
2023/09/18 07:50:51;;;;;;;;;7.33;7.00;;;;;-143.90;65.66;73683.97;4907909;28;102062;-73
2023/09/18 07:53:18;;;;;;;;;7.33;7.33;;;;;-143.90;64.31;73663.31;4914165;28;102107;-74
2023/09/18 07:55:48;;;;;;;;;6.00;6.00;;;;;-143.90;64.89;73646.78;4898959;28;104358;-74
2023/09/18 07:58:15;;;;;;;;;12.67;10.67;;;;;-143.90;63.73;73634.38;4913610;28;104138;-74
2023/09/18 08:00:42;;;;;;;;;8.67;8.00;;;;;-143.90;63.01;73617.84;4902633;28;102019;-74
2023/09/18 08:03:08;;;;;;;;;7.00;6.33;;;;;-143.90;64.62;73601.31;4923959;28;102190;-74
2023/09/18 08:05:35;;;;;;;;;6.00;6.00;;;;;-143.90;62.38;73605.44;4909470;28;109129;-74
2023/09/18 08:08:05;;;;;;;;;5.00;5.00;;;;;-143.90;60.78;73588.91;4926566;28;105172;-74
2023/09/18 08:10:40;;;;;;;;;9.00;8.33;;;;;-143.90;60.41;73574.44;4913511;28;102176;-73
2023/09/18 08:13:07;;;;;;;;;10.00;8.67;;;;;-143.90;62.50;73559.97;4931061;28;101919;-73
2023/09/18 08:15:34;;;;;;;;;6.67;6.00;;;;;-143.90;60.17;73557.91;4901911;28;102314;-74
2023/09/18 08:18:00;;;;;;;;;11.00;9.33;;;;;-143.90;62.29;73555.84;4921817;28;106066;-73
2023/09/18 08:20:28;;;;;;;;;11.00;10.33;;;;;-143.90;60.77;73541.38;4923487;28;102341;-73
2023/09/18 08:22:56;;;;;;;;;8.67;8.00;;;;;-143.90;60.98;73531.03;4903958;28;102539;-75
2023/09/18 08:25:24;;;;;;;;;8.00;7.00;;;;;-143.90;60.68;73516.56;4907205;28;102051;-74
2023/09/18 08:27:50;;;;;;;;;6.67;6.67;;;;;-143.90;59.52;73522.78;4910711;28;105903;-74
2023/09/18 08:30:20;;;;;;;;;6.33;6.00;;;;;-143.90;59.00;73518.66;4928905;28;102217;-74
2023/09/18 08:32:48;;;;;;;;;9.00;8.33;;;;;-143.90;59.72;73514.50;4926533;28;102010;-72
2023/09/18 08:35:15;;;;;;;;;15.67;14.67;;;;;-143.90;58.71;73533.09;4922539;28;101958;-73
2023/09/18 08:37:42;;;;;;;;;15.67;15.67;;;;;-143.90;59.39;73528.97;4924927;28;104031;-72
2023/09/18 08:40:13;;;;;;;;;15.00;14.67;;;;;-143.90;59.14;73512.44;4913164;28;102094;-73
2023/09/18 08:42:45;;;;;;;;;15.00;15.00;;;;;-143.90;60.26;73502.09;4905448;28;102291;-74
2023/09/18 08:45:22;;;;;;;;;12.33;12.00;;;;;-143.90;59.20;73489.72;4917029;28;102046;-73
2023/09/18 08:47:51;;;;;;;;;13.00;11.33;;;;;-143.90;59.01;73462.84;4924798;28;105603;-72
2023/09/18 08:50:19;;;;;;;;;11.67;11.67;;;;;-143.90;60.21;73440.13;4916515;28;102287;-73
2023/09/18 08:52:48;;;;;;;;;9.00;9.00;;;;;-143.90;59.41;73425.66;4908118;28;102247;-72
2023/09/18 08:55:16;;;;;;;;;12.33;12.00;;;;;-143.90;57.00;73431.84;4905945;28;102042;-73
2023/09/18 08:57:45;;;;;;;;;12.33;11.67;;;;;-143.90;56.77;73427.72;4928294;28;105231;-74
2023/09/18 09:00:16;;;;;;;;;9.00;8.33;;;;;-143.90;57.67;73411.19;4918318;28;102043;-74
2023/09/18 09:02:44;;;;;;;;;11.67;11.33;;;;;-143.90;55.60;73407.06;4903978;28;102369;-73
2023/09/18 09:05:11;;;;;;;;;9.00;9.00;;;;;-143.90;54.48;73409.13;4931582;28;102006;-73
2023/09/18 09:07:39;;;;;;;;;11.33;11.00;;;;;-143.90;55.49;73402.91;4910488;28;104031;-72
2023/09/18 09:10:06;;;;;;;;;9.33;9.33;;;;;-143.90;59.34;73388.44;4923499;28;102679;-73
2023/09/18 09:12:54;;;;;;;;;13.67;13.67;;;;;-143.90;57.30;73384.31;4916183;28;102121;-72
2023/09/18 09:15:23;;;;;;;;;15.67;15.33;;;;;-143.90;56.14;73378.13;4927169;28;102406;-73
2023/09/18 09:17:51;;;;;;;;;13.00;13.00;;;;;-143.90;56.17;73369.84;4908485;28;103193;-73
2023/09/18 09:20:18;;;;;;;;;12.33;10.33;;;;;-143.90;58.45;73363.66;4915051;28;102130;-72
2023/09/18 09:22:47;;;;;;;;;13.67;12.00;;;;;-143.90;56.70;73369.84;4912761;28;102207;-72
2023/09/18 09:25:20;;;;;;;;;14.33;13.33;;;;;-143.90;54.75;73357.47;4930743;28;102617;-72
2023/09/18 09:27:47;;;;;;;;;22.67;17.00;;;;;-143.90;54.42;73365.72;4917730;28;104300;-72
2023/09/18 09:30:22;;;;;;;;;13.67;12.67;;;;;-143.90;52.66;73349.19;4908488;28;101874;-74
2023/09/18 09:32:53;;;;;;;;;15.33;14.33;;;;;-143.90;55.05;73349.19;4920152;28;101836;-72
2023/09/18 09:35:22;;;;;;;;;12.33;12.00;;;;;-143.90;53.22;73336.78;4913536;28;102742;-73
2023/09/18 09:37:51;;;;;;;;;14.00;13.00;;;;;-143.90;53.09;73332.66;4923625;28;104194;-73
2023/09/18 09:40:20;;;;;;;;;15.00;14.00;;;;;-143.90;55.07;73330.59;4913796;28;101979;-73
2023/09/18 09:42:47;;;;;;;;;10.00;10.00;;;;;-143.90;54.84;73312.00;4928692;28;102899;-72
2023/09/18 09:45:18;;;;;;;;;10.00;10.00;;;;;-143.90;52.69;73307.84;4914521;28;102379;-74
2023/09/18 09:47:45;;;;;;;;;13.00;10.00;;;;;-143.90;53.20;73299.59;4899966;28;104243;-73
2023/09/18 09:50:16;;;;;;;;;11.00;10.67;;;;;-143.90;54.31;73305.78;4931855;28;102211;-74
2023/09/18 09:52:46;;;;;;;;;9.67;9.67;;;;;-143.90;53.96;73299.59;4925532;28;101993;-74
2023/09/18 09:55:21;;;;;;;;;11.00;11.00;;;;;-143.90;53.50;73295.47;4934617;28;101962;-73
2023/09/18 09:57:49;;;;;;;;;11.67;11.00;;;;;-143.90;54.90;73283.06;4931325;28;104043;-73
2023/09/18 10:00:26;;;;;;;;;11.00;10.00;;;;;-143.90;53.58;73285.13;4926990;28;103702;-74
2023/09/18 10:02:59;;;;;;;;;13.00;10.33;;;;;-143.90;52.65;73283.06;4924148;28;101986;-74
2023/09/18 10:05:32;;;;;;;;;11.67;11.67;;;;;-143.90;53.68;73272.72;4924900;28;102555;-74
2023/09/18 10:08:03;;;;;;;;;13.33;12.33;;;;;-143.90;53.49;73281.00;4911584;28;104147;-73
2023/09/18 10:10:33;;;;;;;;;10.33;10.33;;;;;-143.90;54.81;73274.81;4906179;28;102905;-73
2023/09/18 10:13:07;;;;;;;;;11.00;11.00;;;;;-143.90;55.30;73250.00;4898490;28;102183;-73
2023/09/18 10:15:38;;;;;;;;;14.00;13.33;;;;;-143.90;53.29;73254.13;4927970;28;102214;-73
2023/09/18 10:18:11;;;;;;;;;10.33;9.67;;;;;-143.90;52.40;73270.66;4920169;28;102941;-74
2023/09/18 10:20:43;;;;;;;;;10.00;9.00;;;;;-143.90;53.24;73252.06;4921302;28;101980;-74
2023/09/18 10:23:23;;;;;;;;;18.67;17.00;;;;;-143.90;53.56;73270.66;4927717;28;102100;-74
2023/09/18 10:25:55;;;;;;;;;13.33;13.33;;;;;-143.90;54.50;73256.19;4904215;28;102520;-73
2023/09/18 10:28:23;;;;;;;;;11.67;11.00;;;;;-143.90;54.80;73245.88;4911431;28;110199;-72
2023/09/18 10:30:52;;;;;;;;;10.33;10.33;;;;;-143.90;55.05;73225.19;4924558;28;102119;-74
2023/09/18 10:33:19;;;;;;;;;12.00;11.67;;;;;-143.90;54.74;73212.81;4911593;28;102015;-74
2023/09/18 10:35:47;;;;;;;;;12.00;10.00;;;;;-143.90;56.13;73198.34;4923042;28;104490;-74
2023/09/18 10:38:16;;;;;;;;;10.00;10.00;;;;;-143.90;52.41;73190.06;4910401;28;104014;-73
2023/09/18 10:40:43;;;;;;;;;13.33;13.00;;;;;-143.90;53.12;73202.47;4914394;28;102017;-74
2023/09/18 10:43:11;;;;;;;;;14.33;13.67;;;;;-143.90;51.87;73192.16;4915017;28;101981;-75
2023/09/18 10:45:40;;;;;;;;;13.00;12.67;;;;;-143.90;53.00;73183.88;4934548;28;102039;-73
2023/09/18 10:48:08;;;;;;;;;13.00;12.00;;;;;-143.90;53.66;73175.63;4906502;28;104302;-74
2023/09/18 10:50:36;;;;;;;;;11.67;11.67;;;;;-143.90;52.32;73169.41;4928777;28;102175;-73
2023/09/18 10:53:03;;;;;;;;;11.33;11.33;;;;;-143.90;52.14;73163.22;4925870;28;102296;-73
2023/09/18 10:55:32;;;;;;;;;13.33;12.33;;;;;-143.90;52.77;73163.22;4930539;28;102416;-73
2023/09/18 10:58:00;;;;;;;;;13.67;13.00;;;;;-143.90;53.69;73152.88;4925405;28;103966;-74
2023/09/18 11:00:31;;;;;;;;;12.00;11.67;;;;;-143.90;53.33;73146.69;4906275;28;104325;-73
2023/09/18 11:03:12;;;;;;;;;12.67;12.67;;;;;-143.90;53.07;73150.81;4923208;28;102104;-74
2023/09/18 11:05:39;;;;;;;;;18.33;15.33;;;;;-143.90;50.87;73157.00;4907963;28;102295;-74
2023/09/18 11:08:28;;;;;;;;;13.00;12.00;;;;;-143.90;50.48;73144.63;4924644;28;104144;-74
2023/09/18 11:11:04;;;;;;;;;12.67;12.00;;;;;-143.90;50.98;73128.09;4923365;28;102022;-74
2023/09/18 11:13:35;;;;;;;;;11.33;11.00;;;;;-143.90;49.32;73130.16;4911953;28;111530;-74